Time;durP1;ratioP1;P1;durP2;ratioP2;P2;SDS_P1;SDS_P2;PMS_P1;PMS_P2;Temp;Humidity;BMP_temperature;BMP_pressure;BME280_temperature;BME280_humidity;BME280_pressure;Samples;Min_cycle;Max_cycle;Signal;HPM_P1;HPM_P2
2022/01/14 00:02:17;;;;;;;28.83;16.70;;;;;;;3.83;85.22;101848.28;1789823;80;20982;-71
2022/01/14 00:04:43;;;;;;;32.33;16.60;;;;;;;3.83;85.22;101849.60;1790008;80;21488;-70
2022/01/14 00:07:09;;;;;;;30.68;16.50;;;;;;;3.83;85.23;101843.01;1789713;80;20982;-70
2022/01/14 00:09:37;;;;;;;31.62;16.25;;;;;;;3.84;85.22;101835.45;1790046;79;20995;-70
2022/01/14 00:12:10;;;;;;;26.00;14.80;;;;;;;3.82;85.20;101826.79;1790118;80;21111;-70
2022/01/14 00:14:56;;;;;;;28.70;16.00;;;;;;;3.81;85.21;101827.72;1754762;79;21728;-70
2022/01/14 00:17:15;;;;;;;;;;;;;;;3.80;85.21;101829.50;1748122;80;21106;-70
2022/01/14 00:19:42;;;;;;;26.50;16.32;;;;;;;3.81;85.21;101827.25;1748146;82;20186;-70
2022/01/14 00:22:15;;;;;;;32.30;17.73;;;;;;;3.80;85.22;101840.05;1748128;82;21061;-70
2022/01/14 00:33:05;;;;;;;30.50;17.50;;;;;;;3.78;85.21;101850.33;1740385;81;21048;-70
2022/01/14 00:35:27;;;;;;;98.05;43.30;;;;;;;3.77;85.21;101847.30;1740201;82;21631;-70
2022/01/14 00:37:55;;;;;;;45.00;23.52;;;;;;;3.76;85.19;101845.62;1740794;82;21867;-71
2022/01/14 00:40:21;;;;;;;52.38;24.02;;;;;;;3.76;85.21;101846.48;1728685;82;21045;-71
2022/01/14 00:42:48;;;;;;;43.80;21.82;;;;;;;3.76;85.22;101842.53;1716683;83;21034;-71
2022/01/14 00:45:14;;;;;;;41.00;19.37;;;;;;;3.76;85.21;101837.25;1716736;83;21497;-71
2022/01/14 00:47:40;;;;;;;38.17;20.45;;;;;;;3.76;85.22;101839.03;1724454;80;21039;-71
2022/01/14 00:50:12;;;;;;;40.52;20.17;;;;;;;3.76;85.19;101844.31;1778137;80;21041;-71
2022/01/14 00:52:39;;;;;;;37.40;18.90;;;;;;;3.75;85.19;101836.01;1778858;79;21035;-71
2022/01/14 00:55:07;;;;;;;34.30;18.02;;;;;;;3.75;85.20;101839.96;1794449;79;21499;-71
2022/01/14 01:00:21;;;;;;;32.53;18.55;;;;;;;3.73;85.22;101837.90;1795574;79;21017;-71
2022/01/14 01:02:47;;;;;;;33.08;18.77;;;;;;;3.71;85.22;101836.66;1795904;79;21030;-71
2022/01/14 01:05:14;;;;;;;34.75;18.95;;;;;;;3.69;85.21;101829.78;1795481;79;20985;-71
2022/01/14 01:07:41;;;;;;;37.90;19.57;;;;;;;3.68;85.22;101830.25;1795124;80;21034;-71
2022/01/14 01:10:09;;;;;;;36.83;19.15;;;;;;;3.68;85.22;101836.84;1794939;80;21002;-70
2022/01/14 01:12:47;;;;;;;34.60;18.92;;;;;;;3.67;85.23;101833.81;1794382;80;21475;-71
2022/01/14 01:15:06;;;;;;;32.33;16.75;;;;;;;3.68;85.23;101845.22;1778157;80;21574;-71
2022/01/14 01:17:33;;;;;;;36.63;17.67;;;;;;;3.68;85.21;101842.58;1780086;80;20983;-71
2022/01/14 01:20:00;;;;;;;37.05;21.15;;;;;;;3.68;85.23;101841.27;1780106;80;21074;-71
2022/01/14 01:22:27;;;;;;;36.10;18.00;;;;;;;3.67;85.24;101836.92;1780096;80;20988;-71
2022/01/14 01:24:53;;;;;;;29.90;18.40;;;;;;;3.66;85.24;101840.02;1780028;80;21042;-71
2022/01/14 01:27:21;;;;;;;31.70;19.10;;;;;;;3.67;85.26;101831.64;1780067;80;21073;-71
2022/01/14 01:29:53;;;;;;;35.63;19.17;;;;;;;3.66;85.27;101829.97;1779752;80;21007;-71
2022/01/14 01:32:15;;;;;;;34.73;18.80;;;;;;;3.66;85.26;101828.65;1779138;80;21004;-71
2022/01/14 01:34:41;;;;;;;30.17;17.23;;;;;;;3.66;85.25;101826.83;1779848;80;21030;-71
2022/01/14 01:37:07;;;;;;;37.55;17.50;;;;;;;3.65;85.26;101815.07;1776210;79;20980;-71
2022/01/14 01:39:38;;;;;;;30.20;17.23;;;;;;;3.66;85.27;101820.73;1759334;81;21504;-71
2022/01/14 01:42:07;;;;;;;28.92;16.32;;;;;;;3.67;85.26;101813.18;1758272;80;21545;-71
2022/01/14 01:44:35;;;;;;;36.70;19.70;;;;;;;3.65;85.29;101820.34;1759234;80;21032;-71
2022/01/14 01:47:02;;;;;;;30.08;17.25;;;;;;;3.64;85.29;101813.37;1758859;80;21015;-71
2022/01/14 01:49:31;;;;;;;35.30;18.62;;;;;;;3.65;85.30;101825.63;1759200;81;21039;-71
2022/01/14 01:51:57;;;;;;;27.75;13.68;;;;;;;3.66;85.32;101824.70;1759173;81;21258;-71
2022/01/14 01:54:24;;;;;;;34.48;18.85;;;;;;;3.67;85.32;101818.45;1770424;80;21012;-71
2022/01/14 01:56:50;;;;;;;28.05;16.42;;;;;;;3.65;85.30;101819.88;1788002;80;21006;-71
2022/01/14 01:59:19;;;;;;;31.27;17.77;;;;;;;3.65;85.33;101820.34;1794781;80;21037;-70
2022/01/14 02:01:45;;;;;;;29.13;16.00;;;;;;;3.63;85.33;101802.42;1794655;80;20999;-70
2022/01/14 02:04:12;;;;;;;27.50;16.93;;;;;;;3.63;85.33;101805.06;1794768;80;21158;-70
2022/01/14 02:06:38;;;;;;;35.15;17.30;;;;;;;3.63;85.34;101798.47;1794802;80;21590;-71
2022/01/14 02:09:05;;;;;;;35.78;17.55;;;;;;;3.64;85.38;101800.17;1791291;80;20967;-70
2022/01/14 02:11:31;;;;;;;30.92;15.63;;;;;;;3.63;85.36;101801.11;1789825;79;21042;-69
2022/01/14 02:14:00;;;;;;;35.55;17.70;;;;;;;3.62;85.37;101793.69;1783530;79;20985;-70
2022/01/14 02:16:57;;;;;;;31.42;16.93;;;;;;;3.63;85.39;101783.50;1778744;79;21404;-69
2022/01/14 02:24:34;;;;;;;32.63;17.23;;;;;;;3.65;85.38;101775.51;1779322;80;21535;-69
2022/01/14 02:26:52;;;;;;;37.13;18.55;;;;;;;3.66;85.39;101764.02;1776609;80;21048;-70
2022/01/14 02:29:20;;;;;;;37.03;17.87;;;;;;;3.66;85.40;101769.30;1779411;80;21147;-70
2022/01/14 02:31:46;;;;;;;36.48;18.87;;;;;;;3.64;85.41;101756.19;1779259;80;21474;-69
2022/01/14 02:34:13;;;;;;;36.48;20.92;;;;;;;3.67;85.41;101759.10;1778855;80;21649;-70
2022/01/14 02:36:45;;;;;;;38.05;22.37;;;;;;;3.66;85.42;101767.48;1779256;80;20997;-70
2022/01/14 02:39:12;;;;;;;34.35;16.65;;;;;;;3.66;85.41;101758.75;1778168;79;21513;-70
2022/01/14 02:41:39;;;;;;;29.65;14.30;;;;;;;3.67;85.41;101761.74;1779225;80;21244;-70
2022/01/14 02:44:08;;;;;;;35.30;18.42;;;;;;;3.68;85.40;101750.26;1779031;80;21005;-70
2022/01/14 02:46:38;;;;;;;31.37;16.37;;;;;;;3.69;85.39;101746.22;1779073;80;21012;-70
2022/01/14 02:49:02;;;;;;;27.17;15.25;;;;;;;3.69;85.39;101740.09;1778550;80;21007;-70
2022/01/14 02:51:28;;;;;;;26.75;15.85;;;;;;;3.68;85.38;101726.52;1779119;80;21012;-70
2022/01/14 02:54:00;;;;;;;34.75;16.48;;;;;;;3.68;85.40;101724.73;1778984;80;21224;-70
2022/01/14 02:56:31;;;;;;;30.60;16.17;;;;;;;3.67;85.39;101712.94;1778676;80;21001;-70
2022/01/14 02:58:57;;;;;;;27.25;15.53;;;;;;;3.65;85.39;101717.48;1779054;80;21024;-70
2022/01/14 03:01:25;;;;;;;35.40;17.00;;;;;;;3.64;85.39;101702.59;1779132;80;21068;-70
2022/01/14 03:04:00;;;;;;;29.02;15.25;;;;;;;3.64;85.39;101700.80;1781536;80;21589;-70
2022/01/14 03:06:27;;;;;;;31.55;16.77;;;;;;;3.63;85.37;101689.86;1785050;80;21147;-70
2022/01/14 03:08:53;;;;;;;27.35;17.87;;;;;;;3.64;85.36;101691.56;1794575;80;21526;-70
2022/01/14 03:11:35;;;;;;;33.75;18.25;;;;;;;3.65;85.36;101686.67;1794686;80;20999;-70
2022/01/14 03:14:02;;;;;;;31.02;18.02;;;;;;;3.66;85.37;101686.21;1784777;80;21067;-70
2022/01/14 03:16:29;;;;;;;34.70;18.37;;;;;;;3.67;85.37;101694.48;1779619;80;21081;-70
2022/01/14 03:19:05;;;;;;;33.05;16.60;;;;;;;3.67;85.37;101691.84;1779454;80;21176;-70
2022/01/14 03:21:28;;;;;;;30.25;16.07;;;;;;;3.67;85.36;101682.61;1777702;80;21042;-70
2022/01/14 04:44:19;;;;;;;30.37;15.93;;;;;;;3.61;85.95;101617.06;1718540;83;22136;-69
2022/01/14 04:49:11;;;;;;;41.02;21.77;;;;;;;3.56;86.10;101623.08;1724075;83;22054;-70
2022/01/14 04:51:38;;;;;;;37.90;20.52;;;;;;;3.53;86.16;101609.61;1724055;83;21053;-69
2022/01/14 04:54:04;;;;;;;32.45;17.32;;;;;;;3.51;86.25;101609.73;1724059;83;21007;-69
2022/01/14 04:56:33;;;;;;;31.42;18.87;;;;;;;3.48;86.29;101600.66;1726285;83;20977;-69
2022/01/14 04:58:59;;;;;;;38.13;20.82;;;;;;;3.46;86.36;101601.24;1726803;83;21053;-69
2022/01/14 05:01:25;;;;;;;42.15;23.73;;;;;;;3.42;86.40;101602.38;1726147;82;21117;-69
2022/01/14 05:03:51;;;;;;;46.70;26.90;;;;;;;3.38;86.44;101602.17;1726689;83;21553;-70
2022/01/14 05:06:17;;;;;;;40.65;26.25;;;;;;;3.35;86.49;101604.16;1726358;82;21015;-69
2022/01/14 05:08:43;;;;;;;39.95;25.82;;;;;;;3.33;86.56;101588.45;1726803;83;20852;-69
2022/01/14 05:13:44;;;;;;;36.98;21.20;;;;;;;3.27;86.66;101579.58;1720506;82;21590;-69
2022/01/14 05:16:10;;;;;;;33.30;18.45;;;;;;;3.24;86.71;101577.13;1738675;82;21023;-69
2022/01/14 05:18:38;;;;;;;41.70;18.73;;;;;;;3.20;86.74;101569.03;1738826;82;21004;-69
2022/01/14 05:21:07;;;;;;;37.30;20.88;;;;;;;3.19;86.82;101570.00;1739016;82;21067;-69
2022/01/14 05:23:33;;;;;;;50.17;28.55;;;;;;;3.17;86.86;101574.50;1739066;82;21083;-69
2022/01/14 05:25:59;;;;;;;33.33;20.95;;;;;;;3.15;86.91;101573.76;1738812;82;21158;-69
2022/01/14 05:28:25;;;;;;;30.88;16.87;;;;;;;3.14;86.98;101581.28;1738559;82;21076;-69
2022/01/14 05:30:51;;;;;;;28.80;16.75;;;;;;;3.16;87.04;101578.56;1738506;82;20904;-70
2022/01/14 05:33:18;;;;;;;33.65;17.55;;;;;;;3.16;87.10;101578.09;1708792;84;21534;-69
2022/01/14 05:35:44;;;;;;;29.12;16.90;;;;;;;3.16;87.15;101576.78;1709077;84;21042;-69
2022/01/14 05:38:10;;;;;;;31.97;18.15;;;;;;;3.15;87.22;101578.17;1709064;84;21597;-70
2022/01/14 05:40:36;;;;;;;34.08;21.23;;;;;;;3.16;87.29;101586.00;1705972;84;21058;-69
2022/01/14 05:43:02;;;;;;;31.00;20.02;;;;;;;3.16;87.35;101576.78;1708107;82;21052;-70
2022/01/14 05:45:28;;;;;;;33.95;21.42;;;;;;;3.15;87.41;101569.80;1711636;83;21012;-69
2022/01/14 05:47:54;;;;;;;43.48;23.40;;;;;;;3.16;87.46;101564.92;1723768;83;21077;-69
2022/01/14 05:50:22;;;;;;;38.90;23.02;;;;;;;3.14;87.51;101569.42;1727014;83;21094;-71
2022/01/14 05:52:48;;;;;;;34.88;20.08;;;;;;;3.13;87.57;101574.30;1727318;82;21449;-70
2022/01/14 05:55:17;;;;;;;32.55;18.40;;;;;;;3.14;87.63;101568.56;1727624;82;21056;-70
2022/01/14 05:57:43;;;;;;;44.30;23.20;;;;;;;3.13;87.65;101567.72;1727678;83;21000;-69
2022/01/14 06:00:14;;;;;;;43.98;22.75;;;;;;;3.11;87.70;101566.97;1727672;83;21059;-70
2022/01/14 06:02:40;;;;;;;50.33;24.82;;;;;;;3.11;87.75;101577.98;1726118;83;21206;-69
2022/01/14 06:16:32;;;;;;;38.30;20.90;;;;;;;3.30;87.92;101574.14;1783270;79;23412;-71
2022/01/14 06:18:58;;;;;;;39.92;22.52;;;;;;;3.19;87.99;101577.05;1765677;81;21566;-71
2022/01/14 06:21:24;;;;;;;45.60;25.25;;;;;;;3.10;88.04;101573.18;1765686;80;21876;-71
2022/01/14 06:23:50;;;;;;;41.70;24.63;;;;;;;3.08;88.09;101576.39;1765382;80;20973;-71
2022/01/14 06:26:16;;;;;;;40.43;25.15;;;;;;;3.04;88.11;101564.34;1765115;81;20984;-71
2022/01/14 06:28:43;;;;;;;47.23;26.17;;;;;;;3.01;88.15;101550.89;1728894;83;21049;-71
2022/01/14 06:31:09;;;;;;;44.10;25.97;;;;;;;2.98;88.21;101548.45;1698477;84;21522;-71
2022/01/14 06:33:35;;;;;;;40.23;24.32;;;;;;;2.97;88.22;101552.01;1698156;84;21129;-71
2022/01/14 06:36:02;;;;;;;40.08;21.97;;;;;;;2.96;88.27;101544.19;1701310;81;21082;-71
2022/01/14 06:38:28;;;;;;;38.23;21.85;;;;;;;2.95;88.30;101537.25;1777622;79;21229;-71
2022/01/14 06:40:54;;;;;;;47.88;22.65;;;;;;;2.95;88.34;101534.61;1759282;79;21078;-71
2022/01/14 06:43:20;;;;;;;40.95;22.70;;;;;;;2.94;88.36;101540.34;1763169;80;20894;-71
2022/01/14 06:45:46;;;;;;;49.18;23.70;;;;;;;2.95;88.43;101537.25;1758661;81;21171;-71
2022/01/14 06:48:12;;;;;;;55.38;27.75;;;;;;;2.95;88.45;101553.05;1703667;83;21038;-71
2022/01/14 06:50:38;;;;;;;64.32;30.48;;;;;;;2.96;88.50;101548.14;1703917;83;21018;-71
2022/01/14 06:53:04;;;;;;;56.53;27.67;;;;;;;2.95;88.55;101553.05;1703745;84;21506;-71
2022/01/14 06:55:30;;;;;;;55.65;25.08;;;;;;;2.95;88.57;101549.95;1703790;84;21485;-71
2022/01/14 06:57:56;;;;;;;56.68;28.57;;;;;;;2.95;88.60;101539.41;1715909;81;21214;-71
2022/01/14 07:11:57;;;;;;;40.60;26.07;;;;;;;3.26;88.79;101523.87;1756899;81;22582;-71
2022/01/14 07:14:21;;;;;;;34.75;19.95;;;;;;;3.18;88.84;101527.91;1770773;80;21042;-71
2022/01/14 07:16:47;;;;;;;35.52;17.65;;;;;;;3.12;88.94;101518.61;1756037;81;21209;-70
2022/01/14 07:19:15;;;;;;;30.48;17.50;;;;;;;3.08;88.98;101509.20;1757404;81;20927;-70
2022/01/14 07:21:42;;;;;;;32.28;18.77;;;;;;;3.05;89.02;101504.12;1757603;81;20994;-70
2022/01/14 07:24:09;;;;;;;45.25;20.43;;;;;;;3.01;89.06;101507.87;1757177;81;21091;-70
2022/01/14 07:26:35;;;;;;;59.58;25.17;;;;;;;2.98;89.09;101501.48;1757755;81;21045;-70
2022/01/14 07:29:02;;;;;;;54.98;23.10;;;;;;;2.97;89.15;101494.05;1757325;80;21069;-70
2022/01/14 07:31:28;;;;;;;41.77;20.32;;;;;;;2.98;89.18;101497.53;1757263;81;21065;-70
2022/01/14 07:33:54;;;;;;;26.15;14.60;;;;;;;2.99;89.21;101496.59;1756966;80;20978;-71
2022/01/14 07:36:20;;;;;;;42.45;20.85;;;;;;;2.99;89.24;101479.47;1756441;80;21509;-71
2022/01/14 07:38:46;;;;;;;40.48;22.77;;;;;;;3.00;89.26;101478.52;1755339;80;21042;-71
2022/01/14 07:41:12;;;;;;;46.42;25.37;;;;;;;3.00;89.31;101485.09;1754093;80;21012;-71
2022/01/14 07:43:38;;;;;;;45.90;26.68;;;;;;;2.99;89.34;101485.56;1754251;80;21055;-71
2022/01/14 07:46:05;;;;;;;41.80;25.35;;;;;;;3.00;89.37;101487.27;1750168;80;21055;-71
2022/01/14 07:48:32;;;;;;;43.98;26.12;;;;;;;3.02;89.42;101485.87;1749840;80;21459;-71
2022/01/14 07:50:58;;;;;;;39.95;21.45;;;;;;;3.03;89.43;101482.27;1755754;81;21057;-71
2022/01/14 07:53:24;;;;;;;42.70;22.55;;;;;;;3.03;89.49;101474.36;1756410;81;22020;-71
2022/01/14 07:55:50;;;;;;;39.23;19.92;;;;;;;3.07;89.53;101478.51;1759858;80;21046;-71
2022/01/14 07:58:16;;;;;;;38.95;20.62;;;;;;;3.08;89.59;101478.89;1780218;80;21094;-71
2022/01/14 08:00:43;;;;;;;39.67;20.43;;;;;;;3.08;89.62;101478.89;1771648;78;21019;-71
2022/01/14 08:03:09;;;;;;;35.60;21.05;;;;;;;3.12;89.64;101486.98;1781993;78;21063;-71
2022/01/14 08:05:35;;;;;;;39.10;22.30;;;;;;;3.13;89.67;101491.29;1786361;78;21814;-71
2022/01/14 08:08:05;;;;;;;39.05;20.05;;;;;;;3.13;89.69;101488.66;1781317;80;20958;-70
2022/01/14 08:10:32;;;;;;;35.45;19.20;;;;;;;3.16;89.72;101475.31;1778600;79;21037;-71
2022/01/14 08:12:58;;;;;;;34.80;18.52;;;;;;;3.16;89.76;101475.31;1752725;80;21001;-71
2022/01/14 08:15:24;;;;;;;37.50;20.40;;;;;;;3.17;89.78;101475.66;1786345;80;21553;-71
2022/01/14 08:17:50;;;;;;;47.53;25.95;;;;;;;3.20;89.83;101479.42;1787274;80;21964;-71
2022/01/14 08:20:16;;;;;;;40.88;24.52;;;;;;;3.20;89.84;101491.28;1782013;80;21025;-71
2022/01/14 08:22:42;;;;;;;36.23;22.30;;;;;;;3.22;89.87;101494.69;1780423;80;21509;-71
2022/01/14 08:25:09;;;;;;;39.20;26.48;;;;;;;3.22;89.89;101503.91;1786830;80;20871;-71
2022/01/14 08:27:35;;;;;;;47.20;27.02;;;;;;;3.24;89.92;101513.02;1787257;80;21546;-71
2022/01/14 08:30:02;;;;;;;40.38;25.68;;;;;;;3.27;89.92;101498.36;1786963;80;21542;-71
2022/01/14 08:32:28;;;;;;;33.55;20.35;;;;;;;3.27;89.95;101503.63;1781797;80;21056;-71
2022/01/14 08:34:54;;;;;;;29.70;17.25;;;;;;;3.28;89.96;101502.20;1752726;81;21021;-71
2022/01/14 08:37:20;;;;;;;37.25;19.35;;;;;;;3.30;89.98;101499.02;1752587;81;21538;-71
2022/01/14 08:39:46;;;;;;;53.42;28.40;;;;;;;3.32;90.01;101492.31;1753227;80;21001;-71
2022/01/14 08:42:13;;;;;;;46.23;25.90;;;;;;;3.32;90.02;101496.27;1784388;80;21076;-71
2022/01/14 08:44:39;;;;;;;35.38;21.15;;;;;;;3.33;90.04;101496.18;1740198;82;21064;-70
2022/01/14 08:47:09;;;;;;;47.05;25.97;;;;;;;3.33;90.05;101485.64;1771295;80;21049;-71
2022/01/14 08:49:34;;;;;;;40.67;23.30;;;;;;;3.33;90.06;101489.59;1784268;80;21082;-70
2022/01/14 08:52:00;;;;;;;67.78;34.27;;;;;;;3.35;90.08;101482.88;1787286;80;21551;-70
2022/01/14 08:54:26;;;;;;;35.00;20.45;;;;;;;3.35;90.09;101486.84;1786913;78;21814;-71
2022/01/14 08:56:52;;;;;;;40.92;25.05;;;;;;;3.37;90.10;101487.61;1780961;78;20847;-71
2022/01/14 08:59:18;;;;;;;58.10;35.58;;;;;;;3.37;90.10;101487.14;1786245;80;20910;-71
2022/01/14 09:01:44;;;;;;;52.58;29.32;;;;;;;3.40;90.13;101488.73;1788066;78;21546;-71
2022/01/14 09:04:10;;;;;;;55.67;30.48;;;;;;;3.41;90.14;101486.47;1791626;78;21053;-70
2022/01/14 09:06:36;;;;;;;67.70;38.48;;;;;;;3.41;90.16;101476.75;1781108;80;21141;-70
2022/01/14 09:09:03;;;;;;;62.13;36.58;;;;;;;3.41;90.16;101476.75;1755654;81;21490;-71
2022/01/14 09:11:29;;;;;;;46.70;26.68;;;;;;;3.42;90.17;101484.19;1757814;81;21053;-71
2022/01/14 09:13:55;;;;;;;46.90;27.37;;;;;;;3.44;90.17;101491.08;1759780;81;21049;-70
2022/01/14 09:16:23;;;;;;;51.28;29.00;;;;;;;3.43;90.20;101492.02;1759546;81;21061;-70
2022/01/14 09:18:49;;;;;;;47.75;25.17;;;;;;;3.43;90.22;101484.58;1777026;80;21466;-70
2022/01/14 09:21:16;;;;;;;33.08;18.10;;;;;;;3.43;90.23;101492.02;1791052;80;21495;-70
2022/01/14 09:23:43;;;;;;;39.73;20.85;;;;;;;3.43;90.22;101488.53;1791135;79;20998;-70
2022/01/14 09:26:10;;;;;;;36.93;18.73;;;;;;;3.43;90.24;101486.74;1790053;80;21486;-70
2022/01/14 09:28:36;;;;;;;36.20;18.73;;;;;;;3.45;90.25;101493.22;1791088;80;21009;-70
2022/01/14 09:31:02;;;;;;;37.83;17.73;;;;;;;3.43;90.25;101494.66;1790665;80;21071;-70
2022/01/14 09:33:28;;;;;;;32.33;16.82;;;;;;;3.43;90.27;101489.38;1790053;79;20871;-70
2022/01/14 09:35:54;;;;;;;40.28;22.27;;;;;;;3.43;90.27;101481.47;1791382;79;20994;-70
2022/01/14 09:38:22;;;;;;;45.58;22.90;;;;;;;3.43;90.27;101480.62;1767580;80;21482;-71
2022/01/14 09:40:49;;;;;;;46.95;23.80;;;;;;;3.43;90.30;101487.21;1762855;80;21084;-70
2022/01/14 09:43:15;;;;;;;40.55;21.37;;;;;;;3.43;90.30;101493.80;1765262;80;21123;-71
2022/01/14 09:45:41;;;;;;;41.08;19.82;;;;;;;3.43;90.30;101494.66;1792395;79;21764;-71
2022/01/14 09:48:07;;;;;;;46.45;23.45;;;;;;;3.43;90.32;101502.56;1766492;80;20990;-71
2022/01/14 09:50:33;;;;;;;48.20;25.45;;;;;;;3.42;90.32;101507.45;1791111;79;21029;-71
2022/01/14 09:52:59;;;;;;;42.05;21.68;;;;;;;3.43;90.33;101521.02;1788334;79;21002;-71
2022/01/14 09:55:25;;;;;;;46.65;22.02;;;;;;;3.43;90.33;101517.06;1760127;81;21044;-70
2022/01/14 09:57:55;;;;;;;46.50;21.80;;;;;;;3.43;90.34;101518.84;1760146;81;21016;-70
2022/01/14 10:00:21;;;;;;;39.08;18.40;;;;;;;3.42;90.35;101524.59;1766394;80;21049;-71
2022/01/14 10:02:49;;;;;;;42.40;19.40;;;;;;;3.43;90.36;101513.11;1775235;80;21077;-71
2022/01/14 10:05:38;;;;;;;44.85;19.37;;;;;;;3.45;90.38;101512.99;1790741;80;21892;-71
2022/01/14 10:08:22;;;;;;;37.45;17.57;;;;;;;3.45;90.37;101505.94;1790784;79;21121;-70
2022/01/14 10:10:50;;;;;;;35.85;17.10;;;;;;;3.44;90.39;101491.08;1789068;80;20994;-71
2022/01/14 10:13:23;;;;;;;43.25;20.17;;;;;;;3.43;90.40;101492.02;1786335;80;21037;-71
2022/01/14 10:15:52;;;;;;;38.70;19.98;;;;;;;3.44;90.41;101494.19;1787076;80;21937;-71
2022/01/14 10:18:21;;;;;;;41.03;22.17;;;;;;;3.45;90.48;101498.02;1787449;80;21057;-71
2022/01/14 10:20:48;;;;;;;43.45;22.67;;;;;;;3.45;90.48;101498.02;1752352;81;22136;-70
2022/01/14 10:23:15;;;;;;;41.68;21.25;;;;;;;3.45;90.45;101499.34;1739578;80;21017;-70
2022/01/14 10:25:44;;;;;;;38.08;19.90;;;;;;;3.45;90.47;101482.20;1720229;82;21661;-71
2022/01/14 10:28:18;;;;;;;38.08;22.07;;;;;;;3.48;90.48;101484.64;1762253;81;21446;-70
2022/01/14 10:30:46;;;;;;;40.58;21.70;;;;;;;3.49;90.50;101465.25;1763447;81;21049;-71
2022/01/14 10:33:12;;;;;;;27.55;15.23;;;;;;;3.49;90.50;101449.89;1763924;81;21590;-71
2022/01/14 10:35:43;;;;;;;33.75;17.48;;;;;;;3.50;90.53;101450.28;1722129;83;20911;-71
2022/01/14 10:38:15;;;;;;;38.48;19.90;;;;;;;3.50;90.54;101451.13;1752437;81;21089;-71
2022/01/14 10:40:46;;;;;;;37.28;19.62;;;;;;;3.51;90.56;101450.19;1742597;82;21525;-71
2022/01/14 10:43:15;;;;;;;39.13;20.17;;;;;;;3.53;90.58;101449.61;1725739;82;21751;-71
2022/01/14 10:45:43;;;;;;;50.95;24.00;;;;;;;3.56;90.60;101430.56;1730293;82;21121;-71
2022/01/14 10:48:33;;;;;;;35.88;19.85;;;;;;;3.57;90.63;101415.12;1732160;82;21109;-70
2022/01/14 10:51:02;;;;;;;36.75;19.45;;;;;;;3.56;90.64;101411.63;1737854;82;21053;-71
2022/01/14 10:53:35;;;;;;;34.45;18.42;;;;;;;3.57;90.68;101421.24;1741253;82;21033;-71
2022/01/14 10:56:19;;;;;;;46.30;21.95;;;;;;;3.59;90.70;101411.93;1742429;82;21521;-71
2022/01/14 10:58:47;;;;;;;42.25;25.65;;;;;;;3.60;90.73;101398.63;1741867;82;21572;-72
2022/01/14 11:01:17;;;;;;;43.52;26.37;;;;;;;3.62;90.78;101399.86;1741072;81;21045;-71
2022/01/14 11:04:02;;;;;;;44.03;24.63;;;;;;;3.64;90.78;101386.93;1752239;81;21679;-70
2022/01/14 11:06:34;;;;;;;47.73;23.85;;;;;;;3.65;90.80;101374.59;1751020;81;21014;-71
2022/01/14 11:09:11;;;;;;;48.95;25.27;;;;;;;3.68;90.85;101382.30;1752255;81;21095;-71
2022/01/14 11:11:45;;;;;;;47.25;23.77;;;;;;;3.69;90.87;101386.64;1740202;82;21129;-71
2022/01/14 11:14:11;;;;;;;43.08;23.38;;;;;;;3.69;90.89;101385.31;1735818;80;21034;-71
2022/01/14 11:16:38;;;;;;;39.38;19.20;;;;;;;3.68;90.91;101387.57;1820907;78;21058;-70
2022/01/14 11:19:07;;;;;;;40.10;20.20;;;;;;;3.69;90.92;101382.67;1821176;78;21467;-71
2022/01/14 11:24:28;;;;;;;35.78;18.52;;;;;;;3.70;90.95;101385.66;1788710;80;21312;-71
2022/01/14 11:26:59;;;;;;;27.90;15.65;;;;;;;3.71;90.96;101379.45;1783501;80;21522;-71
2022/01/14 11:29:47;;;;;;;27.98;15.80;;;;;;;3.70;90.98;101369.84;1763185;80;21089;-71
2022/01/14 11:32:13;;;;;;;29.20;17.05;;;;;;;3.72;91.00;101379.83;1788441;80;21014;-71
2022/01/14 11:34:43;;;;;;;57.73;36.13;;;;;;;3.72;91.04;101395.66;1788480;80;21010;-71
2022/01/14 11:37:31;;;;;;;42.03;25.48;;;;;;;3.74;91.05;101399.02;1787470;80;21116;-71
2022/01/14 11:40:06;;;;;;;32.08;18.45;;;;;;;3.75;91.07;101374.34;1787462;80;20998;-70
2022/01/14 11:42:49;;;;;;;31.87;18.10;;;;;;;3.75;91.09;101367.28;1759421;81;21069;-70
2022/01/14 11:45:20;;;;;;;31.45;16.40;;;;;;;3.76;91.11;101380.00;1755868;80;21084;-70
2022/01/14 11:47:48;;;;;;;28.87;13.50;;;;;;;3.77;91.11;101371.12;1790289;80;21034;-71
2022/01/14 11:50:32;;;;;;;28.12;14.90;;;;;;;3.79;91.13;101361.33;1788921;78;21708;-70
2022/01/14 11:52:58;;;;;;;25.62;13.78;;;;;;;3.80;91.16;101377.53;1783077;80;20990;-70
2022/01/14 11:55:34;;;;;;;22.77;12.58;;;;;;;3.81;91.20;101369.97;1792423;80;21053;-69
2022/01/14 11:58:12;;;;;;;26.65;13.88;;;;;;;3.82;91.21;101363.76;1788154;80;21523;-70
2022/01/14 12:00:39;;;;;;;35.58;18.12;;;;;;;3.82;91.21;101351.41;1787817;80;21050;-70
2022/01/14 12:03:13;;;;;;;29.50;14.85;;;;;;;3.84;91.24;101382.95;1788925;80;21026;-70
2022/01/14 12:05:59;;;;;;;35.52;17.35;;;;;;;3.86;91.25;101377.12;1787427;80;21078;-70
2022/01/14 12:08:34;;;;;;;28.20;13.98;;;;;;;3.87;91.25;101369.08;1776761;80;21116;-70
2022/01/14 12:11:12;;;;;;;26.85;13.53;;;;;;;3.90;91.27;101361.45;1757632;81;21081;-70
2022/01/14 12:14:00;;;;;;;23.12;13.78;;;;;;;3.92;91.29;101361.72;1774464;80;21008;-70
2022/01/14 12:16:49;;;;;;;23.18;15.75;;;;;;;3.97;91.31;101368.01;1785334;80;21163;-70
2022/01/14 12:19:21;;;;;;;27.55;16.42;;;;;;;3.99;91.31;101372.70;1788234;80;21057;-70
2022/01/14 12:21:51;;;;;;;24.27;16.17;;;;;;;4.01;91.32;101362.90;1789436;80;21518;-70
2022/01/14 12:24:30;;;;;;;24.30;16.70;;;;;;;4.02;91.32;101346.09;1783197;80;21042;-70
2022/01/14 12:27:08;;;;;;;20.30;11.35;;;;;;;4.07;91.35;101366.43;1758303;81;21594;-70
2022/01/14 12:29:45;;;;;;;17.73;11.25;;;;;;;4.10;91.37;101367.53;1773915;80;21531;-70
2022/01/14 12:32:13;;;;;;;15.50;9.38;;;;;;;4.12;91.36;101347.65;1780730;80;21044;-70
2022/01/14 12:34:59;;;;;;;22.00;11.15;;;;;;;4.14;91.35;101351.02;1760751;80;21600;-70
2022/01/14 12:37:30;;;;;;;19.55;9.95;;;;;;;4.16;91.36;101349.95;1760913;80;21008;-70
2022/01/14 12:39:59;;;;;;;22.42;11.57;;;;;;;4.19;91.38;101347.09;1740529;82;21062;-70
2022/01/14 12:42:26;;;;;;;25.30;14.13;;;;;;;4.21;91.38;101347.85;1742448;81;21040;-70
2022/01/14 12:44:53;;;;;;;39.60;17.20;;;;;;;4.23;91.38;101330.09;1741932;82;21015;-70
2022/01/14 12:47:23;;;;;;;37.42;16.65;;;;;;;4.24;91.40;101329.16;1741071;81;21037;-70
2022/01/14 12:49:49;;;;;;;26.05;13.20;;;;;;;4.23;91.38;101334.06;1741096;81;21529;-70
2022/01/14 12:52:37;;;;;;;28.17;14.58;;;;;;;4.26;91.39;101325.07;1741099;82;21038;-70
2022/01/14 12:54:52;;;;;;;20.00;10.98;;;;;;;4.26;91.40;101328.56;1741192;81;21089;-77
2022/01/14 12:57:19;;;;;;;21.93;10.70;;;;;;;4.29;91.42;101311.69;1699991;83;21079;-73
2022/01/14 12:59:48;;;;;;;20.97;11.83;;;;;;;4.31;91.43;101337.02;1724133;81;21046;-74
2022/01/14 13:02:19;;;;;;;24.72;13.22;;;;;;;4.33;91.45;101323.69;1788276;80;21018;-74
2022/01/14 13:04:45;;;;;;;22.52;11.22;;;;;;;4.33;91.45;101329.82;1789443;80;21069;-73
2022/01/14 13:07:12;;;;;;;32.10;16.73;;;;;;;4.36;91.45;101338.02;1788731;80;21943;-74
2022/01/14 13:09:39;;;;;;;28.75;15.30;;;;;;;4.38;91.45;101347.52;1789437;80;21034;-73
2022/01/14 13:12:11;;;;;;;40.38;20.23;;;;;;;4.39;91.45;101349.22;1789837;80;21527;-74
2022/01/14 13:14:46;;;;;;;42.30;17.40;;;;;;;4.40;91.45;101321.84;1790797;80;20990;-74
2022/01/14 13:17:16;;;;;;;19.27;10.85;;;;;;;4.40;91.46;101342.96;1790073;80;20983;-74
2022/01/14 13:19:44;;;;;;;30.82;14.25;;;;;;;4.42;91.47;101341.08;1791040;80;21171;-74
2022/01/14 13:22:13;;;;;;;30.17;15.03;;;;;;;4.43;91.48;101334.82;1790806;80;21018;-74
2022/01/14 13:24:43;;;;;;;30.37;15.75;;;;;;;4.44;91.46;101335.20;1718839;82;21020;-74
2022/01/14 13:27:13;;;;;;;27.35;12.30;;;;;;;4.44;91.47;101328.59;1740501;82;21077;-74
2022/01/14 13:29:49;;;;;;;22.02;11.12;;;;;;;4.45;91.47;101343.50;1743191;82;21344;-74
2022/01/14 13:32:19;;;;;;;24.92;11.83;;;;;;;4.45;91.46;101347.93;1743514;82;21125;-73